createdAt,value
2022-10-11T00:01:05.257Z,10.40
2022-10-11T00:04:07.139Z,10.40
2022-10-11T00:07:09.674Z,10.30
2022-10-11T00:10:11.477Z,10.20
2022-10-11T00:13:13.133Z,10.20
2022-10-11T00:16:15.567Z,10.00
2022-10-11T00:19:17.638Z,10.10
2022-10-11T00:22:19.676Z,10.10
2022-10-11T00:25:21.574Z,10.20
2022-10-11T00:28:23.636Z,10.30
2022-10-11T00:31:25.548Z,10.40
2022-10-11T00:34:27.507Z,10.20
2022-10-11T00:37:29.169Z,10.00
2022-10-11T00:40:30.871Z,10.20
2022-10-11T00:43:33.109Z,10.20
2022-10-11T00:46:35.068Z,10.10
2022-10-11T00:49:53.865Z,10.00
2022-10-11T00:53:00.143Z,9.90
2022-10-11T00:56:19.398Z,10.00
2022-10-11T00:59:26.410Z,10.00
2022-10-11T01:02:30.334Z,10.00
2022-10-11T01:05:32.492Z,10.00
2022-10-11T01:08:34.498Z,10.00
2022-10-11T01:11:39.199Z,10.10
2022-10-11T01:14:53.380Z,10.10
2022-10-11T01:18:20.328Z,10.00
2022-10-11T01:21:33.742Z,9.90
2022-10-11T01:24:57.315Z,9.90
2022-10-11T01:28:16.113Z,9.80
2022-10-11T01:31:26.949Z,9.80
2022-10-11T01:34:45.590Z,9.70
2022-10-11T01:37:55.668Z,9.80
2022-10-11T01:41:04.116Z,9.70
2022-10-11T01:44:08.841Z,9.60
2022-10-11T01:47:10.749Z,9.60
2022-10-11T01:50:56.255Z,9.60
2022-10-11T01:54:23.984Z,9.60
2022-10-11T01:57:43.661Z,9.50
2022-10-11T02:01:17.169Z,9.40
2022-10-11T02:04:40.815Z,9.50
2022-10-11T02:07:54.593Z,9.40
2022-10-11T02:11:02.221Z,9.50
2022-10-11T02:14:12.926Z,9.50
2022-10-11T02:17:19.894Z,9.30
2022-10-11T02:20:25.253Z,9.30
2022-10-11T02:23:33.409Z,9.20
2022-10-11T02:26:38.182Z,9.10
2022-10-11T02:29:42.864Z,9.20
2022-10-11T02:32:47.729Z,9.20
2022-10-11T02:35:58.672Z,9.00
2022-10-11T02:39:07.802Z,9.10
2022-10-11T02:42:14.926Z,9.20
2022-10-11T02:45:22.347Z,9.30
2022-10-11T02:48:27.537Z,9.30
2022-10-11T02:51:33.283Z,9.30
2022-10-11T02:54:35.283Z,9.20
2022-10-11T02:57:37.219Z,9.20
2022-10-11T03:00:38.983Z,9.20
2022-10-11T03:03:41.043Z,9.10
2022-10-11T03:06:42.854Z,9.10
2022-10-11T03:09:45.127Z,9.10
2022-10-11T03:12:46.905Z,8.80
2022-10-11T03:16:02.660Z,8.80
2022-10-11T03:19:04.914Z,9.00
2022-10-11T03:22:06.646Z,9.00
2022-10-11T03:25:08.902Z,9.00
2022-10-11T03:28:10.640Z,9.00
2022-10-11T03:31:12.487Z,8.90
2022-10-11T03:34:14.413Z,8.90
2022-10-11T03:37:16.540Z,8.90
2022-10-11T03:40:18.316Z,8.90
2022-10-11T03:43:20.379Z,8.90
2022-10-11T03:46:22.101Z,8.80
2022-10-11T03:49:24.153Z,8.70
2022-10-11T03:52:25.829Z,8.60
2022-10-11T03:55:27.752Z,8.60
2022-10-11T03:58:29.441Z,8.60
2022-10-11T04:01:31.421Z,8.50
2022-10-11T04:04:33.319Z,8.50
2022-10-11T04:07:35.384Z,8.60
2022-10-11T04:10:37.327Z,8.50
2022-10-11T04:13:39.327Z,8.50
2022-10-11T04:16:41.295Z,8.50
2022-10-11T04:19:43.270Z,8.50
2022-10-11T04:22:45.178Z,8.60
2022-10-11T04:25:48.284Z,8.50
2022-10-11T04:28:50.015Z,8.30
2022-10-11T04:31:51.887Z,8.40
2022-10-11T04:34:53.951Z,8.40
2022-10-11T04:37:55.839Z,8.30
2022-10-11T04:41:09.247Z,8.30
2022-10-11T04:44:10.966Z,8.20
2022-10-11T04:47:13.433Z,8.30
2022-10-11T04:50:16.163Z,8.30
2022-10-11T04:53:17.896Z,8.30
2022-10-11T04:56:19.762Z,8.30
2022-10-11T04:59:21.790Z,8.30
2022-10-11T05:02:23.842Z,8.30
2022-10-11T05:05:25.654Z,8.40
2022-10-11T05:08:27.382Z,8.40
2022-10-11T05:11:29.205Z,8.40
2022-10-11T05:14:30.919Z,8.40
2022-10-11T05:17:32.927Z,8.40
2022-10-11T05:20:34.661Z,8.40
2022-10-11T05:23:37.245Z,8.40
2022-10-11T05:26:39.100Z,8.50
2022-10-11T05:29:40.785Z,8.50
2022-10-11T05:32:42.465Z,8.50
2022-10-11T05:35:44.498Z,8.40
2022-10-11T05:38:46.484Z,8.30
2022-10-11T05:41:48.135Z,8.30
2022-10-11T05:44:49.863Z,8.20
2022-10-11T05:47:51.754Z,8.30
2022-10-11T05:50:59.530Z,8.30
2022-10-11T05:54:01.376Z,8.30
2022-10-11T05:57:03.192Z,8.20
2022-10-11T06:00:06.053Z,8.30
2022-10-11T06:03:10.512Z,8.20
2022-10-11T06:06:12.805Z,8.30
2022-10-11T06:09:14.545Z,8.30
2022-10-11T06:12:17.204Z,8.20
2022-10-11T06:15:19.160Z,8.30
2022-10-11T06:18:21.143Z,8.30
2022-10-11T06:21:23.965Z,8.30
2022-10-11T06:24:25.931Z,8.20
2022-10-11T06:27:28.329Z,8.30
2022-10-11T06:30:30.076Z,8.30
2022-10-11T06:33:32.155Z,8.20
2022-10-11T06:36:34.091Z,8.20
2022-10-11T06:39:35.984Z,8.30
2022-10-11T06:42:37.897Z,8.40
2022-10-11T06:45:39.895Z,8.40
2022-10-11T06:48:44.459Z,8.40
2022-10-11T06:51:46.233Z,8.40
2022-10-11T06:54:47.891Z,8.40
2022-10-11T06:57:49.688Z,8.50
2022-10-11T07:00:51.528Z,8.40
2022-10-11T07:03:54.877Z,8.40
2022-10-11T07:06:56.718Z,8.50
2022-10-11T07:09:58.670Z,8.50
2022-10-11T07:13:00.555Z,8.60
2022-10-11T07:16:04.259Z,8.50
2022-10-11T07:19:06.945Z,8.70
2022-10-11T07:22:08.789Z,8.70
2022-10-11T07:25:10.548Z,8.70
2022-10-11T07:28:12.749Z,8.70
2022-10-11T07:31:17.972Z,8.80
2022-10-11T07:34:20.716Z,8.90
2022-10-11T07:37:22.406Z,8.90
2022-10-11T07:40:24.143Z,8.90
2022-10-11T07:43:26.067Z,8.80
2022-10-11T07:46:27.767Z,8.80
2022-10-11T07:49:30.386Z,8.90
2022-10-11T07:52:32.302Z,8.90
2022-10-11T07:55:41.983Z,8.90
2022-10-11T07:58:44.289Z,9.10
2022-10-11T08:01:46.749Z,9.10
2022-10-11T08:04:48.481Z,9.10
2022-10-11T08:07:50.148Z,9.10
2022-10-11T08:10:52.027Z,9.20
2022-10-11T08:13:54.178Z,9.10
2022-10-11T08:16:56.033Z,9.20
2022-10-11T08:19:58.206Z,9.30
2022-10-11T08:23:00.699Z,9.20
2022-10-11T08:26:02.674Z,9.30
2022-10-11T08:29:05.333Z,9.40
2022-10-11T08:32:07.272Z,9.50
2022-10-11T08:35:09.208Z,9.60
2022-10-11T08:38:11.608Z,9.70
2022-10-11T08:41:37.995Z,9.70
2022-10-11T08:45:09.524Z,9.80
2022-10-11T08:48:27.565Z,9.80
2022-10-11T08:51:56.368Z,10.00
2022-10-11T08:55:06.054Z,10.10
2022-10-11T08:58:15.056Z,10.00
2022-10-11T09:01:24.887Z,10.10
2022-10-11T09:04:26.697Z,10.10
2022-10-11T09:07:31.141Z,10.10
2022-10-11T09:11:06.282Z,10.30
2022-10-11T09:14:16.900Z,10.40
2022-10-11T09:17:30.473Z,10.50
2022-10-11T09:20:53.105Z,10.50
2022-10-11T09:24:31.610Z,10.40
2022-10-11T09:28:01.754Z,10.60
2022-10-11T09:31:07.431Z,10.60
2022-10-11T09:34:15.081Z,10.80
2022-10-11T09:37:40.972Z,10.80
2022-10-11T09:41:00.404Z,10.90
2022-10-11T09:44:02.174Z,10.90
2022-10-11T09:47:05.395Z,11.10
2022-10-11T09:50:16.954Z,11.20
2022-10-11T09:53:19.430Z,11.50
2022-10-11T09:56:22.798Z,11.70
2022-10-11T09:59:35.300Z,11.80
2022-10-11T10:02:46.964Z,11.90
2022-10-11T10:06:10.110Z,12.10
2022-10-11T10:09:30.432Z,12.10
2022-10-11T10:12:32.206Z,12.20
2022-10-11T10:15:37.930Z,12.10
2022-10-11T10:18:49.404Z,12.20
2022-10-11T10:21:53.807Z,12.40
2022-10-11T10:24:57.760Z,12.60
2022-10-11T10:28:02.646Z,12.80
2022-10-11T10:31:04.524Z,12.80
2022-10-11T10:34:28.331Z,12.90
2022-10-11T10:37:50.007Z,13.00
2022-10-11T10:41:00.930Z,13.20
2022-10-11T10:44:03.925Z,13.30
2022-10-11T10:47:08.426Z,13.40
2022-10-11T10:50:16.430Z,13.40
2022-10-11T10:53:23.958Z,13.40
2022-10-11T10:56:36.683Z,13.50
2022-10-11T10:59:50.309Z,13.70
2022-10-11T11:02:55.244Z,13.70
2022-10-11T11:06:08.486Z,13.80
2022-10-11T11:09:13.810Z,13.90
2022-10-11T11:12:18.483Z,13.90
2022-10-11T11:15:39.078Z,13.90
2022-10-11T11:19:06.497Z,13.90
2022-10-11T11:22:23.509Z,14.00
2022-10-11T11:25:51.289Z,14.00
2022-10-11T11:29:02.551Z,14.00
2022-10-11T11:32:19.262Z,14.00
2022-10-11T11:35:41.398Z,14.00
2022-10-11T11:38:48.563Z,14.00
2022-10-11T11:41:58.027Z,14.10
2022-10-11T11:45:12.874Z,14.00
2022-10-11T11:48:20.115Z,14.00
2022-10-11T11:51:30.453Z,14.00
2022-10-11T11:54:44.421Z,14.00
2022-10-11T11:58:07.141Z,14.00
2022-10-11T12:01:32.568Z,14.00
2022-10-11T12:04:41.921Z,14.10
2022-10-11T12:08:08.480Z,14.20
2022-10-11T12:11:21.882Z,14.20
2022-10-11T12:14:29.886Z,14.20
2022-10-11T12:17:32.061Z,14.20
2022-10-11T12:20:38.741Z,14.30
2022-10-11T12:23:53.248Z,14.40
2022-10-11T12:26:58.016Z,14.40
2022-10-11T12:29:59.808Z,14.40
2022-10-11T12:33:45.804Z,14.50
2022-10-11T12:36:49.410Z,14.50
2022-10-11T12:39:51.496Z,14.50
2022-10-11T12:43:23.964Z,14.60
2022-10-11T12:46:29.064Z,14.60
2022-10-11T12:49:41.119Z,14.60
2022-10-11T12:53:21.504Z,14.60
2022-10-11T12:56:42.088Z,14.60
2022-10-11T12:59:45.877Z,14.50
2022-10-11T13:02:48.643Z,14.60
2022-10-11T13:05:53.712Z,14.70
2022-10-11T13:09:20.310Z,14.70
2022-10-11T13:12:23.393Z,14.70
2022-10-11T13:15:26.522Z,14.80
2022-10-11T13:18:28.274Z,14.80
2022-10-11T13:21:37.247Z,14.80
2022-10-11T13:24:40.246Z,14.80
2022-10-11T13:27:42.317Z,14.80
2022-10-11T13:30:49.430Z,14.80
2022-10-11T13:33:55.237Z,14.80
2022-10-11T13:36:58.763Z,14.80
2022-10-11T13:40:00.627Z,14.70
2022-10-11T13:43:05.271Z,14.80
2022-10-11T13:46:17.418Z,14.80
2022-10-11T13:49:40.421Z,14.80
2022-10-11T13:53:03.644Z,14.80
2022-10-11T13:56:09.586Z,14.80
2022-10-11T13:59:18.288Z,14.80
2022-10-11T14:02:23.781Z,14.80
2022-10-11T14:05:29.893Z,14.80
2022-10-11T14:08:35.438Z,14.90
2022-10-11T14:11:40.062Z,14.90
2022-10-11T14:14:43.659Z,14.90
2022-10-11T14:17:45.918Z,14.90
2022-10-11T14:20:47.662Z,14.80
2022-10-11T14:24:12.154Z,14.80
2022-10-11T14:27:32.239Z,14.80
2022-10-11T14:30:34.233Z,14.80
2022-10-11T14:33:36.993Z,14.80
2022-10-11T14:36:38.747Z,14.80
2022-10-11T14:39:41.644Z,14.80
2022-10-11T14:42:43.622Z,14.90
2022-10-11T14:45:45.287Z,14.90
2022-10-11T14:48:55.330Z,14.90
2022-10-11T14:51:59.477Z,14.90
2022-10-11T14:55:01.866Z,14.80
2022-10-11T14:58:04.777Z,14.90
2022-10-11T15:01:06.562Z,14.80
2022-10-11T15:04:08.766Z,14.90
2022-10-11T15:07:12.702Z,14.90
2022-10-11T15:10:50.160Z,14.90
2022-10-11T15:13:51.860Z,14.90
2022-10-11T15:16:53.609Z,14.80
2022-10-11T15:19:55.390Z,14.80
2022-10-11T15:22:58.874Z,14.80
2022-10-11T15:26:00.458Z,14.80
2022-10-11T15:29:02.901Z,14.80
2022-10-11T15:32:04.833Z,14.90
2022-10-11T15:35:06.928Z,14.80
2022-10-11T15:38:18.373Z,14.80
2022-10-11T15:41:20.498Z,14.80
2022-10-11T15:44:22.170Z,14.80
2022-10-11T15:47:24.276Z,14.80
2022-10-11T15:50:39.847Z,14.80
2022-10-11T15:53:42.235Z,14.80
2022-10-11T15:56:44.133Z,14.80
2022-10-11T15:59:45.885Z,14.80
2022-10-11T16:02:47.616Z,14.70
2022-10-11T16:05:49.725Z,14.70
2022-10-11T16:08:51.497Z,14.70
2022-10-11T16:11:53.449Z,14.70
2022-10-11T16:14:55.463Z,14.70
2022-10-11T16:17:57.167Z,14.60
2022-10-11T16:20:59.381Z,14.60
2022-10-11T16:24:01.077Z,14.60
2022-10-11T16:27:02.792Z,14.50
2022-10-11T16:30:05.015Z,14.40
2022-10-11T16:33:06.936Z,14.30
2022-10-11T16:36:27.273Z,14.40
2022-10-11T16:39:30.228Z,14.30
2022-10-11T16:42:32.567Z,14.30
2022-10-11T16:45:34.898Z,14.20
2022-10-11T16:48:36.586Z,14.20
2022-10-11T16:51:39.169Z,14.10
2022-10-11T16:54:45.917Z,14.00
2022-10-11T16:57:47.914Z,14.00
2022-10-11T17:00:50.765Z,13.80
2022-10-11T17:03:53.510Z,13.80
2022-10-11T17:06:56.505Z,13.70
2022-10-11T17:09:59.515Z,13.60
2022-10-11T17:13:01.219Z,13.50
2022-10-11T17:16:03.320Z,13.30
2022-10-11T17:19:09.108Z,13.20
2022-10-11T17:22:12.199Z,13.10
2022-10-11T17:25:14.179Z,13.10
2022-10-11T17:28:15.969Z,13.10
2022-10-11T17:31:18.286Z,13.10
2022-10-11T17:34:19.989Z,13.00
2022-10-11T17:37:21.690Z,13.00
2022-10-11T17:40:23.401Z,13.00
2022-10-11T17:43:25.427Z,12.80
2022-10-11T17:46:28.238Z,12.90
2022-10-11T17:49:30.351Z,12.80
2022-10-11T17:52:32.691Z,12.60
2022-10-11T17:55:34.633Z,12.40
2022-10-11T17:58:36.511Z,12.50
2022-10-11T18:01:39.015Z,12.50
2022-10-11T18:04:40.833Z,12.40
2022-10-11T18:07:42.550Z,12.30
2022-10-11T18:10:47.554Z,12.30
2022-10-11T18:13:52.320Z,12.10
2022-10-11T18:16:54.065Z,12.20
2022-10-11T18:19:56.565Z,12.10
2022-10-11T18:22:58.272Z,12.00
2022-10-11T18:26:07.870Z,12.00
2022-10-11T18:29:10.859Z,12.00
2022-10-11T18:32:12.686Z,11.90
2022-10-11T18:35:14.775Z,12.00
2022-10-11T18:38:16.532Z,11.90
2022-10-11T18:41:23.432Z,11.90
2022-10-11T18:44:25.224Z,11.90
2022-10-11T18:47:27.219Z,11.90
2022-10-11T18:50:34.825Z,11.80
2022-10-11T18:53:37.643Z,11.50
2022-10-11T18:56:39.997Z,11.60
2022-10-11T18:59:41.725Z,11.60
2022-10-11T19:02:43.489Z,11.50
2022-10-11T19:05:45.820Z,11.50
2022-10-11T19:09:09.605Z,11.40
2022-10-11T19:12:11.284Z,11.30
2022-10-11T19:15:12.997Z,11.30
2022-10-11T19:18:20.218Z,11.30
2022-10-11T19:21:23.185Z,11.20
2022-10-11T19:24:27.238Z,11.20
2022-10-11T19:27:29.214Z,11.10
2022-10-11T19:30:31.977Z,11.00
2022-10-11T19:33:35.143Z,10.90
2022-10-11T19:36:37.492Z,10.90
2022-10-11T19:39:39.890Z,10.90
2022-10-11T19:42:41.599Z,10.70
2022-10-11T19:45:44.058Z,10.80
2022-10-11T19:48:46.901Z,10.70
2022-10-11T19:51:50.095Z,10.70
2022-10-11T19:54:51.839Z,10.80
2022-10-11T19:57:53.642Z,10.80
2022-10-11T20:01:16.361Z,10.80
2022-10-11T20:04:33.522Z,10.70
2022-10-11T20:07:40.123Z,10.60
2022-10-11T20:10:41.947Z,10.60
2022-10-11T20:13:44.124Z,10.60
2022-10-11T20:16:45.897Z,10.50
2022-10-11T20:19:47.946Z,10.50
2022-10-11T20:22:49.816Z,10.50
2022-10-11T20:26:08.242Z,10.50
2022-10-11T20:29:10.123Z,10.40
2022-10-11T20:32:11.953Z,10.40
2022-10-11T20:35:13.769Z,10.30
2022-10-11T20:38:15.450Z,10.30
2022-10-11T20:41:25.616Z,10.20
2022-10-11T20:44:27.666Z,10.10
2022-10-11T20:47:29.367Z,10.10
2022-10-11T20:50:31.492Z,10.10
2022-10-11T20:53:35.119Z,10.00
2022-10-11T20:56:37.943Z,9.90
2022-10-11T20:59:39.644Z,10.00
2022-10-11T21:02:41.371Z,9.70
2022-10-11T21:05:43.600Z,9.80
2022-10-11T21:08:45.378Z,9.80
2022-10-11T21:11:47.187Z,9.70
2022-10-11T21:14:48.897Z,9.70
2022-10-11T21:17:51.791Z,9.70
2022-10-11T21:20:53.814Z,9.70
2022-10-11T21:24:05.149Z,9.80
2022-10-11T21:27:07.090Z,9.80
2022-10-11T21:30:09.385Z,9.90
2022-10-11T21:33:11.087Z,9.90
2022-10-11T21:36:18.190Z,9.80
2022-10-11T21:39:19.906Z,9.70
2022-10-11T21:42:25.908Z,9.50
2022-10-11T21:45:30.344Z,9.40
2022-10-11T21:48:32.354Z,9.50
2022-10-11T21:51:35.395Z,9.30
2022-10-11T21:54:37.491Z,9.30
2022-10-11T21:57:42.677Z,9.30
2022-10-11T22:00:47.027Z,9.20
2022-10-11T22:03:48.793Z,9.30
2022-10-11T22:06:50.488Z,9.30
2022-10-11T22:09:52.407Z,9.40
2022-10-11T22:12:54.248Z,9.30
2022-10-11T22:15:56.397Z,9.20
2022-10-11T22:18:58.147Z,9.10
2022-10-11T22:21:59.842Z,9.00
2022-10-11T22:25:01.759Z,9.00
2022-10-11T22:28:04.573Z,9.00
2022-10-11T22:31:07.339Z,9.00
2022-10-11T22:34:09.062Z,9.00
2022-10-11T22:37:10.916Z,9.00
2022-10-11T22:40:13.008Z,9.00
2022-10-11T22:43:14.744Z,8.90
2022-10-11T22:46:16.585Z,8.90
2022-10-11T22:49:18.315Z,9.00
2022-10-11T22:52:20.282Z,8.90
2022-10-11T22:55:22.185Z,8.80
2022-10-11T22:58:23.948Z,8.80
2022-10-11T23:01:25.612Z,8.50
2022-10-11T23:04:27.541Z,8.60
2022-10-11T23:07:29.274Z,8.70
2022-10-11T23:10:31.143Z,8.70
2022-10-11T23:13:33.113Z,8.80
2022-10-11T23:16:34.876Z,8.80
2022-10-11T23:19:38.098Z,8.70
2022-10-11T23:22:39.951Z,8.60
2022-10-11T23:25:41.661Z,8.60
2022-10-11T23:28:44.307Z,8.50
2022-10-11T23:31:47.071Z,8.50
2022-10-11T23:34:48.963Z,8.30
2022-10-11T23:37:52.443Z,8.40
2022-10-11T23:40:54.420Z,8.30
2022-10-11T23:43:56.674Z,8.30
2022-10-11T23:46:58.376Z,8.30
2022-10-11T23:50:00.456Z,8.30
2022-10-11T23:53:02.136Z,8.30
2022-10-11T23:56:05.033Z,8.20
2022-10-11T23:59:07.122Z,8.20
